Aérodrome :
LOGIN :

S'inscrire | Disclaimer

   EN    FR    IT 

 










Légende :    VFR   VFR Marginal   IFR   IFR Intensif   IFR Très Intensif
Visi : 
Plafond : 
>= 8 km
>= 3000ft
5 à 8 km
1000 à 3000 ft
1500m à 5 km
500 à 1000 ft
800 à 1500m
200 à 500 ft
< 800m
< 200 ft
Symboles :   Orages  Brouillard  Fortes neiges  Fortes précipitations  Vent > 20 kt
SIGMETs :   Divers  Orages  Givrage  Turbulence  Onde Orograph.  Cendres Volcan.







- Altitude de l'aérodrome : 616 ft
- Code IATA : PUF
- Voir les cartes d'approche


LFBP - Pau

DERNIER METAR :
  • 252330Z AUTO 05005KT 030V090 9999 BKN058 09/01 Q1027 NOSIG

METARs EXPIRÉS :
  • 252300Z AUTO VRB02KT 9999 OVC056 09/02 Q1027 NOSIG
  • 252230Z AUTO VRB02KT 9999 OVC056 08/02 Q1027 NOSIG
  • 252200Z AUTO 00000KT 9999 BKN054 08/02 Q1027 BECMG 04010KT
  • 252130Z AUTO 00000KT CAVOK 09/02 Q1027 BECMG 04010KT
  • 252100Z AUTO 02003KT CAVOK 09/02 Q1027 NOSIG

TAF TAF LFBP
Valide du 26 à 00h jusqu'au 27 à 00h UTC


252300Z 2600/2624 05010KT CAVOK
Pas de NOTAMs connus pour ce terrain.
2 SIGMETs publiés pour la FIR Bordeaux (LFBB) :
 
Turbulence forte
LFBB SIGMET 4 VALID 260000/260400 LFPW
LFBB BORDEAUX FIR/UIR SEV TURB FCST WI N4515 E00245 - N4215 E00230 - N4230 E00200 - N4300 E00230 - N4345 E00230 - N4500 E00145 - N4515 E00245 SFC/FL120 STNR NC=
Turbulence forte
LFBB SIGMET 3 VALID 252000/260000 LFPW
LFBB BORDEAUX FIR/UIR SEV TURB FCST WI N4345 E00245 - N4215 E00230 - N4215 E00215 - N4315 E00230 - N4345 E00245 SFC/FL080 STNR NC=



MET'MAP, la Météo Aéronautique d'un coup d'oeil ! - Copyright ORBIFLY Décembre 2007 - Disclaimer

ORBIFLY MET'MAP TEAM :

Programmation & Développement : Alexandra Zaïnal
Conception & Développement : Baudouin d'Aumeries
Co-Programmation & Développement : Marc-Olivier Méhu
Soutien technique & logistique : Manuel Goepfert

Contact : metmap@orbifly.com




SOURCES & CREDITS :

   NOAA